Time;durP1;ratioP1;P1;durP2;ratioP2;P2;SDS_P1;SDS_P2;PMS_P1;PMS_P2;Temp;Humidity;BMP_temperature;BMP_pressure;BME280_temperature;BME280_humidity;BME280_pressure;Samples;Min_cycle;Max_cycle;Signal;HPM_P1;HPM_P2
2023/07/20 00:01:15;;;;;;;6.17;1.70;;;20.90;99.90;;;;;;5070775;28;20379;-69
2023/07/20 00:03:41;;;;;;;5.88;1.60;;;20.90;99.90;;;;;;5070316;28;20446;-68
2023/07/20 00:06:10;;;;;;;5.97;1.40;;;20.90;99.90;;;;;;5050773;28;20392;-68
2023/07/20 00:08:36;;;;;;;5.72;1.70;;;20.80;99.90;;;;;;5046728;28;20413;-69
2023/07/20 00:11:01;;;;;;;5.20;1.20;;;20.70;99.90;;;;;;5049545;28;20925;-69
2023/07/20 00:13:27;;;;;;;5.13;1.30;;;20.70;99.90;;;;;;5061988;28;20423;-68
2023/07/20 00:15:53;;;;;;;7.18;1.70;;;20.70;99.90;;;;;;5066719;28;20891;-69
2023/07/20 00:18:21;;;;;;;6.07;1.50;;;20.60;99.90;;;;;;5065871;28;20395;-68
2023/07/20 00:20:47;;;;;;;6.00;1.53;;;20.60;99.90;;;;;;5069281;28;20388;-68
2023/07/20 00:23:12;;;;;;;9.90;2.00;;;20.50;99.90;;;;;;5051161;28;20392;-68
2023/07/20 00:25:38;;;;;;;6.27;1.60;;;20.40;99.90;;;;;;5069160;28;20400;-68
2023/07/20 00:28:03;;;;;;;7.50;2.00;;;20.30;99.90;;;;;;5069197;28;20903;-68
2023/07/20 00:30:29;;;;;;;5.90;1.50;;;20.30;99.90;;;;;;5069553;28;20415;-67
2023/07/20 00:32:55;;;;;;;5.40;1.40;;;20.30;99.90;;;;;;5069379;28;20380;-68
2023/07/20 00:35:20;;;;;;;6.00;1.50;;;20.30;99.90;;;;;;5070106;28;20493;-69
2023/07/20 00:37:46;;;;;;;6.70;1.30;;;20.30;99.90;;;;;;5069611;28;20395;-69
2023/07/20 00:40:12;;;;;;;6.13;1.50;;;20.20;99.90;;;;;;5069771;28;20461;-69
2023/07/20 00:42:37;;;;;;;6.70;1.50;;;20.10;99.90;;;;;;5069552;28;20421;-68
2023/07/20 00:45:03;;;;;;;6.10;1.50;;;20.00;99.90;;;;;;5043563;28;20417;-68
2023/07/20 00:47:29;;;;;;;5.10;1.30;;;19.90;99.90;;;;;;5048731;28;20404;-68
2023/07/20 00:49:55;;;;;;;5.70;1.30;;;19.80;1.00;;;;;;5048691;28;20417;-70
2023/07/20 00:52:22;;;;;;;5.63;1.43;;;19.70;1.00;;;;;;5049488;28;20894;-70
2023/07/20 00:54:49;;;;;;;6.50;1.30;;;19.60;1.00;;;;;;5049795;28;20827;-68
2023/07/20 00:57:15;;;;;;;5.85;1.42;;;19.40;1.00;;;;;;5053711;28;20393;-68
2023/07/20 00:59:41;;;;;;;5.93;1.53;;;19.40;1.00;;;;;;5053620;28;20421;-69
2023/07/20 01:02:07;;;;;;;6.20;1.60;;;19.40;1.00;;;;;;5053332;28;20389;-68
2023/07/20 01:04:34;;;;;;;6.70;1.63;;;19.30;1.00;;;;;;5035333;28;20941;-68
2023/07/20 01:07:25;;;;;;;7.60;1.80;;;19.20;1.00;;;;;;5053318;28;20785;-69
2023/07/20 01:10:12;;;;;;;5.60;1.40;;;19.10;1.00;;;;;;5059868;28;20982;-69
2023/07/20 01:12:50;;;;;;;6.30;1.53;;;19.10;1.00;;;;;;5073048;28;20483;-68
2023/07/20 01:15:16;;;;;;;8.90;1.52;;;19.10;1.00;;;;;;5074409;28;20382;-69
2023/07/20 01:17:43;;;;;;;5.93;1.30;;;19.00;1.00;;;;;;5074492;28;20739;-69
2023/07/20 01:20:13;;;;;;;7.05;1.30;;;19.00;1.00;;;;;;5074116;28;20387;-68
2023/07/20 01:23:07;;;;;;;5.30;1.00;;;18.90;1.00;;;;;;5074351;28;20384;-69
2023/07/20 01:25:45;;;;;;;5.55;1.50;;;18.80;1.00;;;;;;5074166;28;20423;-68
2023/07/20 01:28:38;;;;;;;5.35;1.40;;;18.70;1.00;;;;;;5074665;28;20416;-68
2023/07/20 01:31:21;;;;;;;6.10;1.40;;;18.60;99.90;;;;;;5056471;28;20740;-69
2023/07/20 01:33:48;;;;;;;6.43;1.70;;;18.50;99.90;;;;;;5075476;28;20753;-69
2023/07/20 01:36:17;;;;;;;7.65;1.30;;;18.40;99.90;;;;;;5075133;28;21024;-68
2023/07/20 01:38:43;;;;;;;5.75;1.38;;;18.30;99.90;;;;;;5076009;28;20479;-69
2023/07/20 01:41:14;;;;;;;5.45;1.50;;;18.30;99.90;;;;;;5076859;28;20398;-69
2023/07/20 01:43:40;;;;;;;5.40;1.20;;;18.20;99.90;;;;;;5077046;28;20435;-67
2023/07/20 01:46:06;;;;;;;5.93;1.70;;;18.20;99.90;;;;;;5078505;28;20424;-68
2023/07/20 01:48:32;;;;;;;5.80;1.60;;;18.20;99.90;;;;;;5076790;28;20506;-69
2023/07/20 01:50:57;;;;;;;6.60;1.70;;;18.10;99.90;;;;;;5075895;28;20959;-68
2023/07/20 01:53:23;;;;;;;6.20;1.85;;;18.10;99.90;;;;;;5057759;28;20445;-69
2023/07/20 01:55:49;;;;;;;6.80;1.13;;;18.00;99.90;;;;;;5074459;28;20396;-68
2023/07/20 01:58:15;;;;;;;5.70;1.50;;;17.90;99.90;;;;;;5075467;28;20430;-68
2023/07/20 02:00:40;;;;;;;7.15;2.13;;;17.80;99.90;;;;;;5075168;28;20736;-69
2023/07/20 02:03:06;;;;;;;5.40;1.60;;;17.80;99.90;;;;;;5073339;28;20384;-68
2023/07/20 02:05:32;;;;;;;6.80;1.50;;;17.80;99.90;;;;;;5071436;28;20392;-68
2023/07/20 02:07:57;;;;;;;5.85;1.60;;;17.80;99.90;;;;;;5071721;28;20387;-68
2023/07/20 02:10:23;;;;;;;5.50;1.50;;;17.80;99.90;;;;;;5053230;28;20399;-68
2023/07/20 02:12:48;;;;;;;5.73;1.40;;;17.70;99.90;;;;;;5070595;28;20410;-68
2023/07/20 02:15:16;;;;;;;7.00;1.70;;;17.70;99.90;;;;;;5070212;28;20888;-69
2023/07/20 02:17:42;;;;;;;7.60;1.70;;;17.70;99.90;;;;;;5069593;28;20558;-68
2023/07/20 02:20:09;;;;;;;6.60;1.60;;;17.70;1.00;;;;;;5070204;28;20943;-68
2023/07/20 02:22:37;;;;;;;7.25;1.52;;;17.70;1.00;;;;;;5052202;28;20402;-69
2023/07/20 02:25:04;;;;;;;5.97;1.85;;;17.60;1.00;;;;;;5068882;28;20470;-69
2023/07/20 02:27:30;;;;;;;6.72;1.65;;;17.60;1.00;;;;;;5067100;28;20864;-69
2023/07/20 02:29:56;;;;;;;6.30;1.50;;;17.70;1.00;;;;;;5069574;28;20963;-68
2023/07/20 02:32:21;;;;;;;5.63;1.40;;;17.60;1.00;;;;;;5068770;28;20482;-68
2023/07/20 02:34:47;;;;;;;5.63;1.60;;;17.50;1.00;;;;;;5069237;28;20399;-68
2023/07/20 02:37:13;;;;;;;6.00;1.50;;;17.50;1.00;;;;;;5068969;28;20403;-68
2023/07/20 02:39:39;;;;;;;8.90;1.60;;;17.40;1.00;;;;;;5068727;28;20391;-68
2023/07/20 02:42:05;;;;;;;6.40;1.70;;;17.40;11.70;;;;;;5069338;28;20807;-68
2023/07/20 02:44:30;;;;;;;6.90;1.87;;;17.40;96.70;;;;;;5068511;28;20502;-68
2023/07/20 02:46:56;;;;;;;7.15;1.90;;;17.30;99.90;;;;;;5068359;28;20541;-68
2023/07/20 02:49:21;;;;;;;6.47;1.77;;;17.10;99.90;;;;;;5069300;28;20414;-68
2023/07/20 02:51:47;;;;;;;9.10;1.98;;;17.00;1.00;;;;;;5068627;28;20801;-69
2023/07/20 02:54:12;;;;;;;6.40;2.00;;;16.90;1.00;;;;;;5067721;28;20403;-69
2023/07/20 02:56:38;;;;;;;6.10;1.97;;;16.80;82.30;;;;;;5067523;28;20388;-68
2023/07/20 02:59:04;;;;;;;10.93;1.70;;;16.80;99.90;;;;;;5068320;28;20395;-68
2023/07/20 03:01:29;;;;;;;6.65;1.80;;;16.70;99.90;;;;;;5067752;28;20478;-68
2023/07/20 03:03:58;;;;;;;7.20;1.40;;;16.70;92.10;;;;;;5069929;28;20419;-68
2023/07/20 03:06:23;;;;;;;5.53;1.50;;;16.70;92.50;;;;;;5070846;28;20394;-68
2023/07/20 03:08:51;;;;;;;6.73;1.70;;;16.70;99.90;;;;;;5070153;28;20388;-68
2023/07/20 03:11:18;;;;;;;5.75;1.40;;;16.80;96.60;;;;;;5070385;28;20799;-68
2023/07/20 03:13:44;;;;;;;7.03;1.77;;;16.80;20.50;;;;;;5069747;28;20396;-69
2023/07/20 03:16:12;;;;;;;9.73;2.20;;;16.70;99.90;;;;;;5060012;28;20405;-68
2023/07/20 03:18:38;;;;;;;5.70;1.80;;;16.70;99.90;;;;;;5043133;28;20400;-67
2023/07/20 03:21:07;;;;;;;7.60;1.98;;;16.70;99.90;;;;;;5044002;28;20396;-68
2023/07/20 03:23:33;;;;;;;9.38;1.80;;;16.70;99.90;;;;;;5033902;28;20405;-67
2023/07/20 03:25:59;;;;;;;5.40;1.23;;;16.60;99.90;;;;;;5050484;28;20774;-69
2023/07/20 03:28:25;;;;;;;6.50;2.00;;;16.60;99.90;;;;;;5050984;28;20438;-68
2023/07/20 03:30:58;;;;;;;6.07;1.70;;;16.60;99.90;;;;;;5049046;28;20962;-75
2023/07/20 03:33:27;;;;;;;5.90;1.70;;;16.70;1.00;;;;;;5039577;28;20439;-74
2023/07/20 03:35:54;;;;;;;7.07;2.00;;;16.60;99.90;;;;;;5049756;28;20421;-74
2023/07/20 03:38:20;;;;;;;5.95;1.85;;;16.60;99.90;;;;;;5059978;28;20389;-74
2023/07/20 03:41:03;;;;;;;6.82;1.67;;;16.60;1.00;;;;;;5059773;28;20394;-75
2023/07/20 03:43:35;;;;;;;9.85;2.38;;;16.50;1.00;;;;;;5043845;28;20409;-74
2023/07/20 03:46:06;;;;;;;7.45;1.60;;;16.40;1.00;;;;;;5047518;28;20415;-75
2023/07/20 03:48:33;;;;;;;6.60;1.80;;;16.50;1.00;;;;;;5026528;28;20491;-74
2023/07/20 03:51:00;;;;;;;7.40;2.00;;;16.50;1.00;;;;;;5038655;28;20454;-75
2023/07/20 03:53:27;;;;;;;5.90;1.70;;;16.50;1.00;;;;;;5014942;28;20420;-75
2023/07/20 03:55:57;;;;;;;6.72;1.70;;;16.60;1.00;;;;;;5050700;28;20458;-75
2023/07/20 03:58:24;;;;;;;5.28;1.40;;;16.60;1.00;;;;;;5034956;28;20398;-74
2023/07/20 04:00:51;;;;;;;6.90;2.00;;;16.60;1.00;;;;;;5039735;28;21099;-74
2023/07/20 04:03:18;;;;;;;7.47;2.00;;;16.60;1.00;;;;;;5038045;28;20410;-74
2023/07/20 04:05:44;;;;;;;10.43;2.40;;;16.50;1.00;;;;;;5014347;28;20422;-75
2023/07/20 04:08:13;;;;;;;5.97;1.55;;;16.50;1.00;;;;;;5037832;28;20899;-74
2023/07/20 04:10:38;;;;;;;6.73;1.70;;;16.50;1.00;;;;;;5028916;28;20805;-67
2023/07/20 04:13:05;;;;;;;8.57;1.88;;;16.50;1.00;;;;;;5055574;28;20425;-68
2023/07/20 04:15:31;;;;;;;6.30;1.60;;;16.60;1.00;;;;;;5064143;28;20490;-68
2023/07/20 04:17:56;;;;;;;8.05;2.17;;;16.70;1.00;;;;;;5069607;28;20391;-68
2023/07/20 04:20:23;;;;;;;7.20;1.77;;;16.70;1.00;;;;;;5071600;28;20840;-68
2023/07/20 04:22:49;;;;;;;6.93;1.60;;;16.70;1.00;;;;;;5072173;28;20427;-68
2023/07/20 04:25:15;;;;;;;7.60;2.20;;;16.80;1.00;;;;;;5073100;28;20447;-69
2023/07/20 04:27:41;;;;;;;6.00;1.75;;;16.90;99.90;;;;;;5073940;28;20453;-68
2023/07/20 04:30:08;;;;;;;6.20;1.70;;;16.90;1.00;;;;;;5074977;28;20400;-68
2023/07/20 04:32:34;;;;;;;6.90;2.00;;;17.10;99.90;;;;;;5078514;28;20800;-68
2023/07/20 04:35:00;;;;;;;10.95;1.90;;;17.00;99.90;;;;;;5075982;28;20417;-69
2023/07/20 04:37:25;;;;;;;11.40;2.38;;;17.00;99.90;;;;;;5074489;28;20420;-68
2023/07/20 04:39:51;;;;;;;8.10;1.77;;;17.00;99.90;;;;;;5075017;28;20935;-68
2023/07/20 04:42:16;;;;;;;5.70;1.70;;;17.00;99.90;;;;;;5055653;28;20429;-68
2023/07/20 04:44:42;;;;;;;6.88;1.50;;;17.00;1.00;;;;;;5073248;28;20484;-68
2023/07/20 04:47:08;;;;;;;13.20;1.60;;;17.10;1.00;;;;;;5073057;28;20430;-69
2023/07/20 04:49:34;;;;;;;9.40;1.50;;;17.20;99.90;;;;;;5072761;28;20379;-68
2023/07/20 04:51:59;;;;;;;7.68;1.58;;;17.20;1.00;;;;;;5072601;28;20397;-69
2023/07/20 04:54:26;;;;;;;6.00;1.57;;;17.40;99.90;;;;;;5073441;28;20419;-70
2023/07/20 04:56:54;;;;;;;7.60;1.80;;;17.60;99.90;;;;;;5072897;28;20434;-69
2023/07/20 04:59:19;;;;;;;6.07;1.70;;;17.80;1.00;;;;;;5072762;28;20388;-68
2023/07/20 05:01:45;;;;;;;6.57;1.63;;;18.00;1.00;;;;;;5072463;28;20406;-68
2023/07/20 05:04:11;;;;;;;6.90;1.67;;;18.20;1.00;;;;;;5072203;28;20423;-69
2023/07/20 05:06:38;;;;;;;6.60;1.53;;;19.00;99.90;;;;;;5071929;28;20433;-68
2023/07/20 05:09:06;;;;;;;6.68;1.90;;;19.70;1.00;;;;;;5072360;28;20392;-69
2023/07/20 05:11:32;;;;;;;7.22;1.60;;;20.60;1.00;;;;;;5071922;28;20418;-68
2023/07/20 05:13:57;;;;;;;7.57;1.90;;;21.60;1.00;;;;;;5053763;28;20384;-70
2023/07/20 05:16:23;;;;;;;8.47;1.70;;;22.00;99.90;;;;;;5072716;28;20742;-68
2023/07/20 05:18:49;;;;;;;6.63;1.60;;;21.80;99.90;;;;;;5071581;28;20380;-69
2023/07/20 05:21:14;;;;;;;6.63;1.77;;;22.00;99.90;;;;;;5053128;28;20410;-68
2023/07/20 05:23:40;;;;;;;5.97;1.20;;;22.60;99.90;;;;;;5071904;28;20419;-68
2023/07/20 05:26:09;;;;;;;7.50;1.73;;;23.00;99.90;;;;;;5071795;28;20415;-69
2023/07/20 05:28:34;;;;;;;6.50;1.63;;;23.40;99.90;;;;;;5071757;28;20422;-68
2023/07/20 05:31:05;;;;;;;5.80;1.50;;;23.20;99.90;;;;;;5072434;28;20888;-69
2023/07/20 05:33:30;;;;;;;6.50;1.40;;;23.50;99.90;;;;;;5071847;28;20392;-69
2023/07/20 05:36:01;;;;;;;7.67;1.40;;;23.80;99.90;;;;;;5072259;28;20441;-69
2023/07/20 05:38:27;;;;;;;6.80;1.73;;;24.30;1.00;;;;;;5071790;28;20509;-69
2023/07/20 05:40:58;;;;;;;6.35;1.80;;;24.90;99.90;;;;;;5072420;28;20887;-68
2023/07/20 05:43:24;;;;;;;5.80;1.40;;;25.70;99.90;;;;;;5072795;28;20392;-69
2023/07/20 05:45:50;;;;;;;6.40;1.70;;;26.30;99.90;;;;;;5072330;28;20395;-69
2023/07/20 05:48:16;;;;;;;5.60;1.60;;;26.80;99.90;;;;;;5071995;28;20437;-69
2023/07/20 05:50:43;;;;;;;6.57;1.70;;;26.70;99.90;;;;;;5071073;28;20748;-69
2023/07/20 05:53:09;;;;;;;6.75;1.60;;;26.90;99.90;;;;;;5070434;28;20402;-68
2023/07/20 05:55:34;;;;;;;6.68;1.33;;;27.20;99.90;;;;;;5069693;28;20395;-68
2023/07/20 05:58:00;;;;;;;6.32;1.45;;;27.20;99.90;;;;;;5069939;28;20471;-68
2023/07/20 06:00:26;;;;;;;7.83;1.50;;;27.30;99.90;;;;;;5070143;28;20474;-68
2023/07/20 06:02:53;;;;;;;7.70;1.58;;;27.60;99.90;;;;;;5070305;28;20402;-69
2023/07/20 06:05:20;;;;;;;5.80;1.30;;;27.60;99.90;;;;;;5072061;28;20461;-69
2023/07/20 06:07:45;;;;;;;5.90;1.30;;;27.30;99.90;;;;;;5081341;28;20390;-69
2023/07/20 06:10:11;;;;;;;5.95;1.55;;;27.10;99.90;;;;;;5089312;28;20977;-69
2023/07/20 06:12:36;;;;;;;8.75;1.70;;;27.20;99.90;;;;;;5071657;28;20429;-68
2023/07/20 06:15:04;;;;;;;6.30;1.70;;;27.00;99.90;;;;;;5073833;28;20384;-68
2023/07/20 06:17:30;;;;;;;8.57;1.70;;;27.10;99.90;;;;;;5069832;28;20401;-68
2023/07/20 06:19:55;;;;;;;6.00;1.90;;;27.60;99.90;;;;;;5069780;28;20403;-69
2023/07/20 06:22:21;;;;;;;5.77;1.67;;;27.20;99.90;;;;;;5070774;28;20848;-68
2023/07/20 06:24:46;;;;;;;6.43;1.77;;;27.10;99.90;;;;;;5070659;28;20503;-69
2023/07/20 06:27:12;;;;;;;6.50;1.38;;;27.00;99.90;;;;;;5052234;28;20400;-68
2023/07/20 06:29:38;;;;;;;5.80;1.38;;;27.60;99.90;;;;;;5069742;28;20419;-68
2023/07/20 06:32:05;;;;;;;5.40;1.10;;;27.30;99.90;;;;;;5069231;28;20395;-68
2023/07/20 06:34:30;;;;;;;5.55;1.30;;;27.60;99.90;;;;;;5069239;28;20391;-68
2023/07/20 06:36:56;;;;;;;5.63;1.27;;;27.10;99.90;;;;;;5051361;28;20384;-68
2023/07/20 06:39:22;;;;;;;5.30;1.30;;;26.80;99.90;;;;;;5069510;28;20441;-68
2023/07/20 06:41:48;;;;;;;5.60;1.40;;;26.90;99.90;;;;;;5069107;28;20411;-68
2023/07/20 06:44:13;;;;;;;5.30;1.27;;;27.50;99.90;;;;;;5069377;28;20419;-68
2023/07/20 06:46:39;;;;;;;5.80;1.20;;;27.60;99.90;;;;;;5051267;28;20472;-68
2023/07/20 06:49:07;;;;;;;5.73;1.10;;;27.70;99.90;;;;;;5068821;28;20399;-68
2023/07/20 06:51:32;;;;;;;6.85;1.73;;;28.10;99.90;;;;;;5068501;28;20880;-68
2023/07/20 06:53:58;;;;;;;5.10;1.10;;;27.00;99.90;;;;;;5068107;28;20464;-68
2023/07/20 06:56:23;;;;;;;5.10;0.90;;;27.40;99.90;;;;;;5069040;28;20467;-68
2023/07/20 06:58:49;;;;;;;5.10;1.20;;;27.80;99.90;;;;;;5068977;28;20983;-68
2023/07/20 07:01:14;;;;;;;6.20;1.20;;;28.30;99.90;;;;;;5069164;28;21108;-68
2023/07/20 07:03:40;;;;;;;5.60;1.50;;;28.80;99.90;;;;;;5068272;28;20407;-69
2023/07/20 07:06:05;;;;;;;5.77;1.40;;;28.90;99.90;;;;;;5068512;28;20426;-69
2023/07/20 07:08:31;;;;;;;6.47;1.50;;;28.90;99.90;;;;;;5068498;28;20398;-69
2023/07/20 07:10:57;;;;;;;6.22;1.30;;;28.80;99.90;;;;;;5068447;28;20539;-68
2023/07/20 07:13:23;;;;;;;5.80;1.67;;;28.50;99.90;;;;;;5073857;28;20436;-68
2023/07/20 07:15:48;;;;;;;6.53;1.45;;;28.70;99.90;;;;;;5088599;28;20397;-69
2023/07/20 07:18:14;;;;;;;5.97;1.77;;;28.90;99.90;;;;;;5088993;28;20440;-69
2023/07/20 07:20:39;;;;;;;5.27;1.00;;;28.70;99.90;;;;;;5088935;28;20389;-69
2023/07/20 07:23:05;;;;;;;6.17;0.93;;;29.00;99.90;;;;;;5088192;28;20386;-69
2023/07/20 07:25:32;;;;;;;8.85;1.70;;;29.50;99.90;;;;;;5088297;28;20470;-69
2023/07/20 07:27:57;;;;;;;7.20;1.40;;;30.20;99.90;;;;;;5088185;28;20746;-68
2023/07/20 07:30:23;;;;;;;8.35;1.60;;;30.00;99.90;;;;;;5088956;28;20480;-68
2023/07/20 07:32:48;;;;;;;5.67;1.63;;;30.10;99.90;;;;;;5088445;28;20413;-68
2023/07/20 07:35:14;;;;;;;6.63;1.40;;;29.70;99.90;;;;;;5087874;28;20394;-68
2023/07/20 07:37:39;;;;;;;6.13;1.43;;;30.40;99.90;;;;;;5087580;28;20878;-69
2023/07/20 07:40:07;;;;;;;6.05;1.45;;;29.00;99.90;;;;;;5088201;28;20382;-68
2023/07/20 07:42:33;;;;;;;12.40;2.40;;;27.60;99.90;;;;;;5088379;28;20394;-68
2023/07/20 07:44:58;;;;;;;5.53;1.13;;;27.50;99.90;;;;;;5087942;28;20413;-68
2023/07/20 07:47:24;;;;;;;7.30;1.50;;;28.20;99.90;;;;;;5088626;28;20386;-68
2023/07/20 07:49:49;;;;;;;7.50;1.43;;;29.00;99.90;;;;;;5087470;28;20863;-68
2023/07/20 07:52:15;;;;;;;6.88;1.75;;;29.50;99.90;;;;;;5087738;28;20382;-68
2023/07/20 07:54:41;;;;;;;8.40;1.60;;;28.20;99.90;;;;;;5088337;28;20385;-68
2023/07/20 07:57:06;;;;;;;4.97;1.08;;;27.00;99.90;;;;;;5087573;28;20397;-68
2023/07/20 07:59:36;;;;;;;5.90;1.58;;;26.30;99.90;;;;;;5088251;28;20912;-68
2023/07/20 08:02:04;;;;;;;10.90;1.60;;;26.90;99.90;;;;;;5087929;28;20915;-68
2023/07/20 08:04:29;;;;;;;5.90;1.50;;;28.30;99.90;;;;;;5087411;28;20422;-69
2023/07/20 08:06:55;;;;;;;6.00;1.60;;;29.80;99.90;;;;;;5087931;28;20874;-69
2023/07/20 08:09:20;;;;;;;5.20;1.30;;;30.30;99.90;;;;;;5088447;28;20436;-68
2023/07/20 08:11:48;;;;;;;6.30;1.50;;;30.80;99.90;;;;;;5087748;28;20565;-69
2023/07/20 08:14:13;;;;;;;6.80;1.20;;;30.00;99.90;;;;;;5076292;28;20398;-69
2023/07/20 08:16:39;;;;;;;5.97;1.50;;;29.00;99.90;;;;;;5067796;28;20388;-69
2023/07/20 08:19:04;;;;;;;5.97;1.30;;;27.60;99.90;;;;;;5067307;28;20418;-68
2023/07/20 08:21:30;;;;;;;6.30;1.50;;;28.20;99.90;;;;;;5067175;28;20402;-68
2023/07/20 08:23:55;;;;;;;5.43;1.37;;;28.40;99.90;;;;;;5067724;28;20461;-68
2023/07/20 08:26:22;;;;;;;8.18;1.60;;;28.20;99.90;;;;;;5067969;28;20441;-68
2023/07/20 08:28:48;;;;;;;5.70;1.40;;;26.90;99.90;;;;;;5067258;28;20457;-68
2023/07/20 08:31:14;;;;;;;6.30;1.27;;;26.70;99.90;;;;;;5067561;28;20424;-68
2023/07/20 08:33:39;;;;;;;7.32;1.67;;;;;;;;;;5067344;28;20479;-68
2023/07/20 08:36:05;;;;;;;6.05;1.10;;;27.20;99.90;;;;;;5067741;28;20909;-68
2023/07/20 08:38:31;;;;;;;6.70;1.70;;;28.90;99.90;;;;;;5067189;28;20623;-68
2023/07/20 08:40:59;;;;;;;5.50;1.40;;;30.40;99.90;;;;;;5067024;28;20398;-68
2023/07/20 08:43:25;;;;;;;5.50;1.10;;;30.90;99.90;;;;;;5067396;28;20380;-69
2023/07/20 08:45:53;;;;;;;6.60;1.40;;;31.00;99.90;;;;;;5068240;28;20392;-69
2023/07/20 08:48:20;;;;;;;7.20;1.70;;;31.30;99.90;;;;;;5067203;28;20399;-69
2023/07/20 08:50:49;;;;;;;5.50;1.50;;;31.10;99.90;;;;;;5067002;28;20395;-69
2023/07/20 08:53:14;;;;;;;6.35;1.50;;;30.00;99.90;;;;;;5067151;28;20429;-68
2023/07/20 08:55:43;;;;;;;8.60;1.60;;;30.00;99.90;;;;;;5067000;28;20468;-69
2023/07/20 08:58:10;;;;;;;6.07;1.27;;;30.60;99.90;;;;;;5067029;28;20424;-69
2023/07/20 09:00:36;;;;;;;5.05;1.08;;;30.80;99.90;;;;;;5067014;28;21192;-69
2023/07/20 09:03:03;;;;;;;6.38;1.25;;;30.30;99.90;;;;;;5066562;28;20395;-69
2023/07/20 09:05:29;;;;;;;5.20;1.17;;;31.40;99.90;;;;;;5066958;28;20557;-68
2023/07/20 09:07:54;;;;;;;6.00;1.90;;;32.50;99.90;;;;;;5067965;28;20467;-68
2023/07/20 09:10:24;;;;;;;6.33;1.50;;;31.20;99.90;;;;;;5067258;28;20458;-69
2023/07/20 09:12:50;;;;;;;5.82;1.30;;;30.00;99.90;;;;;;5048444;28;20408;-69
2023/07/20 09:15:16;;;;;;;6.32;1.02;;;29.70;99.90;;;;;;5047266;28;20397;-69
2023/07/20 09:17:49;;;;;;;7.20;1.30;;;29.30;99.90;;;;;;5049688;28;20730;-69
2023/07/20 09:20:17;;;;;;;6.05;1.13;;;29.00;99.90;;;;;;5050797;28;20458;-69
2023/07/20 09:22:43;;;;;;;5.60;1.30;;;30.80;99.90;;;;;;5050475;28;20386;-69
2023/07/20 09:25:17;;;;;;;5.50;1.40;;;31.90;99.90;;;;;;5050567;28;20451;-69
2023/07/20 09:27:44;;;;;;;8.25;1.30;;;30.80;99.90;;;;;;5050577;28;20531;-69
2023/07/20 09:30:13;;;;;;;6.30;1.20;;;30.10;99.90;;;;;;5049966;28;20393;-69
2023/07/20 09:32:45;;;;;;;5.20;1.20;;;29.80;99.90;;;;;;5050117;28;20472;-68
2023/07/20 09:35:19;;;;;;;6.20;1.50;;;29.20;99.90;;;;;;5050047;28;20393;-69
2023/07/20 09:37:54;;;;;;;6.00;1.10;;;29.90;99.90;;;;;;5050221;28;20393;-69
2023/07/20 09:40:20;;;;;;;7.60;1.08;;;30.40;99.90;;;;;;5050128;28;20385;-69
2023/07/20 09:42:47;;;;;;;5.83;1.20;;;30.80;99.90;;;;;;5049940;28;20381;-68
2023/07/20 09:45:12;;;;;;;5.80;1.27;;;30.40;99.90;;;;;;5049990;28;20421;-69
2023/07/20 09:47:39;;;;;;;5.70;1.33;;;30.20;99.90;;;;;;5049715;28;20753;-68
2023/07/20 09:50:10;;;;;;;5.18;0.98;;;29.70;99.90;;;;;;5050059;28;20390;-68
2023/07/20 09:52:38;;;;;;;8.25;1.45;;;30.60;99.90;;;;;;5049906;28;21031;-68
2023/07/20 09:55:05;;;;;;;4.80;0.77;;;30.80;99.90;;;;;;5049605;28;20389;-69
2023/07/20 09:57:33;;;;;;;4.50;0.70;;;30.80;99.90;;;;;;5049361;28;20475;-69
2023/07/20 09:59:59;;;;;;;5.53;1.10;;;31.30;99.90;;;;;;5050069;28;20405;-69
2023/07/20 10:02:33;;;;;;;5.40;0.90;;;31.80;99.90;;;;;;5049782;28;20392;-69
2023/07/20 10:05:03;;;;;;;5.93;1.30;;;31.80;99.90;;;;;;5049380;28;20907;-69
2023/07/20 10:07:30;;;;;;;5.57;1.08;;;31.70;99.90;;;;;;5049384;28;20381;-69
2023/07/20 10:09:59;;;;;;;5.20;1.10;;;31.10;99.90;;;;;;5049784;28;20386;-68
2023/07/20 10:12:27;;;;;;;9.47;1.37;;;30.90;99.90;;;;;;5050126;28;20433;-69
2023/07/20 10:15:19;;;;;;;5.35;1.13;;;31.80;99.90;;;;;;5083762;28;20402;-68
2023/07/20 10:18:23;;;;;;;6.45;0.90;;;31.70;99.90;;;;;;5089573;28;21953;-68
2023/07/20 10:20:51;;;;;;;6.03;1.25;;;31.00;99.90;;;;;;5089947;28;20390;-68
2023/07/20 10:23:17;;;;;;;5.03;1.00;;;31.50;99.90;;;;;;5089551;28;20739;-68
2023/07/20 10:25:43;;;;;;;5.80;0.90;;;31.50;99.90;;;;;;5089250;28;20422;-69
2023/07/20 10:28:10;;;;;;;9.70;1.50;;;30.90;99.90;;;;;;5089316;28;20374;-68
2023/07/20 10:30:37;;;;;;;5.60;1.13;;;30.40;99.90;;;;;;5089156;28;20459;-68
2023/07/20 10:33:04;;;;;;;5.90;1.10;;;30.10;99.90;;;;;;5089341;28;20400;-68
2023/07/20 10:35:29;;;;;;;4.70;0.70;;;30.40;99.90;;;;;;5090082;28;20390;-68
2023/07/20 10:38:01;;;;;;;5.40;1.00;;;30.90;99.90;;;;;;5071202;28;20847;-68
2023/07/20 10:40:37;;;;;;;5.57;1.10;;;30.70;99.90;;;;;;5089072;28;20422;-68
2023/07/20 10:43:06;;;;;;;5.20;0.90;;;30.30;99.90;;;;;;5089294;28;20389;-68
2023/07/20 10:45:54;;;;;;;6.10;1.00;;;30.40;99.90;;;;;;5088726;28;20417;-68
2023/07/20 10:48:24;;;;;;;6.43;0.80;;;29.30;99.90;;;;;;5089381;28;20810;-68
2023/07/20 10:51:10;;;;;;;6.10;1.20;;;28.90;99.90;;;;;;5088916;28;20391;-68
2023/07/20 10:53:35;;;;;;;5.55;1.00;;;29.30;99.90;;;;;;5088773;28;20397;-68
2023/07/20 10:56:10;;;;;;;5.50;0.90;;;29.30;99.90;;;;;;5088836;28;20370;-68
2023/07/20 10:58:36;;;;;;;5.73;1.43;;;28.20;99.90;;;;;;5088344;28;20382;-68
2023/07/20 11:01:03;;;;;;;5.33;1.10;;;28.40;99.90;;;;;;5088796;28;20386;-68
2023/07/20 11:03:39;;;;;;;6.63;1.20;;;29.00;99.90;;;;;;5089114;28;20480;-68
2023/07/20 11:06:31;;;;;;;5.10;1.30;;;29.30;99.90;;;;;;5089128;28;20715;-68
2023/07/20 11:09:04;;;;;;;5.63;1.55;;;28.60;99.90;;;;;;5088739;28;20765;-68
2023/07/20 11:11:31;;;;;;;5.50;1.05;;;29.20;99.90;;;;;;5088636;28;20436;-68
2023/07/20 11:14:02;;;;;;;5.60;1.10;;;29.70;99.90;;;;;;5079331;28;20509;-68
2023/07/20 11:16:46;;;;;;;6.45;0.85;;;29.60;99.90;;;;;;5068326;28;20388;-68
2023/07/20 11:19:25;;;;;;;5.30;1.10;;;28.80;99.90;;;;;;5068381;28;20395;-68
2023/07/20 11:21:58;;;;;;;5.10;0.90;;;28.00;99.90;;;;;;5068782;28;20468;-68
2023/07/20 11:24:24;;;;;;;5.57;1.10;;;28.60;99.90;;;;;;5068862;28;20451;-68
2023/07/20 11:26:52;;;;;;;4.80;0.95;;;29.00;99.90;;;;;;5068912;28;20458;-68
2023/07/20 11:29:20;;;;;;;5.20;0.82;;;29.30;99.90;;;;;;5067634;28;20395;-68
2023/07/20 11:31:46;;;;;;;5.30;0.98;;;29.40;99.90;;;;;;5068069;28;20418;-68
2023/07/20 11:34:17;;;;;;;5.00;0.82;;;28.80;99.90;;;;;;5068508;28;20423;-68
2023/07/20 11:36:47;;;;;;;5.10;0.98;;;28.70;99.90;;;;;;5068261;28;20455;-68
2023/07/20 11:39:15;;;;;;;4.80;0.80;;;28.40;99.90;;;;;;5067935;28;20456;-68
2023/07/20 11:41:51;;;;;;;5.10;0.90;;;28.30;99.90;;;;;;5067873;28;20798;-68
2023/07/20 11:44:18;;;;;;;4.80;0.90;;;28.70;99.90;;;;;;5068038;28;20788;-68
2023/07/20 11:46:45;;;;;;;6.00;1.20;;;29.00;99.90;;;;;;5068114;28;20399;-68
2023/07/20 11:49:11;;;;;;;4.70;1.00;;;28.90;99.90;;;;;;5068458;28;20487;-68
2023/07/20 11:51:37;;;;;;;5.38;1.30;;;29.20;99.90;;;;;;5068097;28;20392;-68
2023/07/20 11:54:07;;;;;;;7.40;1.10;;;29.30;99.90;;;;;;5068384;28;20394;-68
2023/07/20 11:56:32;;;;;;;5.20;1.10;;;29.80;99.90;;;;;;5067509;28;20397;-69
2023/07/20 11:59:00;;;;;;;5.30;0.80;;;29.50;99.90;;;;;;5067374;28;20396;-69
2023/07/20 12:01:31;;;;;;;5.00;0.90;;;28.80;99.90;;;;;;5067715;28;20391;-68
2023/07/20 12:03:57;;;;;;;5.70;1.27;;;28.80;99.90;;;;;;5049082;28;20420;-69
2023/07/20 12:06:25;;;;;;;5.20;1.10;;;29.30;99.90;;;;;;5050188;28;20704;-69
2023/07/20 12:08:54;;;;;;;4.90;1.00;;;29.60;99.90;;;;;;5068131;28;20938;-69
2023/07/20 12:11:40;;;;;;;7.40;1.10;;;29.20;99.90;;;;;;5066948;28;20400;-69
2023/07/20 12:14:09;;;;;;;5.30;1.20;;;29.20;99.90;;;;;;5066737;28;20764;-69
2023/07/20 12:16:36;;;;;;;5.07;0.90;;;29.50;99.90;;;;;;5067759;28;21039;-69
2023/07/20 12:19:06;;;;;;;5.50;1.10;;;29.00;99.90;;;;;;5067907;28;20896;-69
2023/07/20 12:21:34;;;;;;;4.90;0.90;;;28.90;99.90;;;;;;5067649;28;20740;-69
2023/07/20 12:24:00;;;;;;;6.70;1.40;;;28.80;99.90;;;;;;5067424;28;20435;-69
2023/07/20 12:26:26;;;;;;;5.90;1.00;;;29.00;99.90;;;;;;5067769;28;20444;-69
2023/07/20 12:28:52;;;;;;;4.97;1.00;;;29.10;99.90;;;;;;5068699;28;20384;-69
2023/07/20 12:31:18;;;;;;;4.90;0.85;;;29.20;99.90;;;;;;5068484;28;20460;-68
2023/07/20 12:33:44;;;;;;;5.90;1.10;;;29.20;99.90;;;;;;5050517;28;20949;-68
2023/07/20 12:36:10;;;;;;;5.30;1.00;;;29.30;99.90;;;;;;5068645;28;20375;-69
2023/07/20 12:38:36;;;;;;;5.20;0.80;;;29.50;99.90;;;;;;5067938;28;20421;-69
2023/07/20 12:41:02;;;;;;;5.18;1.08;;;29.50;99.90;;;;;;5068026;28;20482;-69
2023/07/20 12:43:29;;;;;;;4.90;0.90;;;29.40;99.90;;;;;;5069738;28;20460;-68
2023/07/20 12:45:55;;;;;;;6.13;1.10;;;29.60;99.90;;;;;;5075030;28;20392;-68
2023/07/20 12:48:21;;;;;;;5.18;0.88;;;29.50;99.90;;;;;;5078680;28;20542;-68
2023/07/20 12:50:47;;;;;;;6.40;0.95;;;29.60;99.90;;;;;;5069039;28;20384;-69